Time;durP1;ratioP1;P1;durP2;ratioP2;P2;SDS_P1;SDS_P2;PMS_P1;PMS_P2;Temp;Humidity;BMP_temperature;BMP_pressure;BME280_temperature;BME280_humidity;BME280_pressure;Samples;Min_cycle;Max_cycle;Signal;HPM_P1;HPM_P2
2022/02/14 00:01:45;;;;;;;7.60;5.30;;;;;;;-1.95;65.09;99530.10;430775;1270;140631;-65
2022/02/14 00:11:53;;;;;;;9.60;5.30;;;;;;;-1.84;65.04;99525.30;431507;1270;141024;-68
2022/02/14 00:21:58;;;;;;;8.40;5.60;;;;;;;-1.68;64.78;99512.39;431816;1270;140891;-66
2022/02/14 00:32:06;;;;;;;9.30;5.70;;;;;;;-1.62;64.90;99511.94;432143;1270;146201;-65
2022/02/14 00:42:12;;;;;;;7.50;4.80;;;;;;;-1.63;64.93;99512.64;436635;1269;141251;-64
2022/02/14 00:52:17;;;;;;;6.00;4.80;;;;;;;-1.58;65.13;99513.59;435620;1270;142206;-65
2022/02/14 01:02:23;;;;;;;9.20;5.80;;;;;;;-1.57;65.26;99511.52;432855;1270;141134;-63
2022/02/14 01:12:30;;;;;;;10.60;5.50;;;;;;;-1.57;65.54;99500.54;433781;1270;142550;-64
2022/02/14 01:22:36;;;;;;;8.40;6.20;;;;;;;-1.64;65.46;99486.73;431788;1270;144004;-64
2022/02/14 01:32:42;;;;;;;9.70;6.10;;;;;;;-1.77;65.74;99473.39;432918;1270;141103;-63
2022/02/14 01:42:48;;;;;;;10.80;6.20;;;;;;;-1.88;66.13;99457.92;434865;1270;141174;-63
2022/02/14 01:52:54;;;;;;;9.10;6.90;;;;;;;-1.91;66.59;99447.16;434521;1270;141718;-64
2022/02/14 02:03:00;;;;;;;8.70;6.00;;;;;;;-1.96;66.88;99438.48;433299;1270;141705;-62
2022/02/14 02:13:06;;;;;;;13.20;8.00;;;;;;;-1.98;67.44;99426.33;432587;1270;142047;-62
2022/02/14 02:23:12;;;;;;;13.10;9.10;;;;;;;-1.99;67.97;99427.20;431260;1270;142017;-63
2022/02/14 02:33:18;;;;;;;12.00;8.40;;;;;;;-1.98;68.33;99423.76;440020;1270;221028;-64
2022/02/14 02:43:25;;;;;;;17.10;11.20;;;;;;;-1.96;68.60;99420.13;433674;1270;143292;-63
2022/02/14 02:53:31;;;;;;;19.70;12.00;;;;;;;-1.98;68.82;99422.05;443950;1271;142757;-63
2022/02/14 03:03:37;;;;;;;14.90;10.70;;;;;;;-2.09;69.14;99421.17;434516;1270;142137;-64
2022/02/14 03:13:43;;;;;;;14.20;9.80;;;;;;;-2.16;69.20;99413.73;438356;1269;143164;-63
2022/02/14 03:23:49;;;;;;;14.10;9.20;;;;;;;-2.29;69.77;99411.69;438070;1270;200018;-64
2022/02/14 03:33:55;;;;;;;12.60;9.70;;;;;;;-2.34;70.04;99409.02;445006;1269;143059;-64
2022/02/14 03:44:01;;;;;;;12.90;9.90;;;;;;;-2.43;70.19;99403.66;440887;1270;142335;-65
2022/02/14 03:54:07;;;;;;;14.80;9.40;;;;;;;-2.55;70.45;99405.19;435612;1269;143187;-64
2022/02/14 04:04:13;;;;;;;19.70;9.80;;;;;;;-2.72;70.66;99401.46;435316;1270;142735;-63
2022/02/14 04:14:18;;;;;;;18.00;11.10;;;;;;;-2.89;70.79;99393.11;441095;1270;142041;-63
2022/02/14 04:24:24;;;;;;;19.90;11.00;;;;;;;-2.96;71.14;99385.65;434836;1271;141363;-63
2022/02/14 04:34:30;;;;;;;15.70;11.00;;;;;;;-2.98;71.44;99381.22;437991;1269;142689;-63
2022/02/14 04:44:36;;;;;;;19.60;12.60;;;;;;;-3.03;71.67;99371.52;445791;1270;143245;-63
2022/02/14 04:54:43;;;;;;;22.00;13.10;;;;;;;-3.06;71.84;99366.42;437044;1270;143018;-63
2022/02/14 05:04:48;;;;;;;22.10;14.80;;;;;;;-3.07;72.31;99366.42;431576;1270;145706;-62
2022/02/14 05:14:54;;;;;;;27.60;16.40;;;;;;;-3.07;72.46;99363.70;430117;1269;142846;-61
2022/02/14 05:25:00;;;;;;;30.50;16.60;;;;;;;-3.14;72.65;99362.40;430509;1270;142340;-63
2022/02/14 05:35:08;;;;;;;29.60;16.60;;;;;;;-3.17;72.97;99363.29;435106;1270;141150;-63
2022/02/14 05:45:13;;;;;;;21.70;14.40;;;;;;;-3.06;73.62;99360.42;434287;1271;142068;-63
2022/02/14 05:55:19;;;;;;;26.30;15.40;;;;;;;-2.75;73.72;99361.41;442220;1269;144092;-63
2022/02/14 06:05:25;;;;;;;23.30;15.30;;;;;;;-2.47;73.72;99367.55;432645;1271;142378;-62
2022/02/14 06:15:31;;;;;;;21.00;15.40;;;;;;;-2.24;73.49;99371.67;439278;1270;142355;-63
2022/02/14 06:25:37;;;;;;;25.90;16.70;;;;;;;-2.10;73.21;99369.91;444258;1270;142266;-63
2022/02/14 06:35:43;;;;;;;24.90;16.90;;;;;;;-1.94;72.90;99367.06;444544;1270;142778;-63
2022/02/14 06:45:49;;;;;;;28.20;16.70;;;;;;;-1.62;72.84;99368.60;438275;1269;143836;-63
2022/02/14 06:55:55;;;;;;;29.50;17.80;;;;;;;-0.96;71.90;99366.16;434749;1271;142284;-63
2022/02/14 07:06:01;;;;;;;24.10;16.40;;;;;;;1.23;70.90;99362.98;429464;1271;141868;-61
2022/02/14 07:16:07;;;;;;;26.00;17.90;;;;;;;4.91;67.16;99354.74;434544;1270;143948;-64
2022/02/14 07:26:13;;;;;;;23.30;17.70;;;;;;;7.87;63.24;99350.69;435294;1270;140097;-64
2022/02/14 07:36:22;;;;;;;21.70;17.50;;;;;;;10.35;59.31;99347.46;435676;1270;142871;-64
2022/02/14 07:46:28;;;;;;;20.60;17.40;;;;;;;12.12;56.12;99339.71;443408;1269;142150;-64
2022/02/14 07:56:34;;;;;;;20.40;17.20;;;;;;;13.57;53.45;99329.14;432052;1270;142861;-63
2022/02/14 08:06:40;;;;;;;20.50;16.50;;;;;;;15.31;51.08;99318.38;436852;1270;142186;-62
2022/02/14 08:16:46;;;;;;;24.10;18.30;;;;;;;17.01;48.70;99314.66;433649;1269;141205;-63
2022/02/14 08:26:51;;;;;;;18.10;15.00;;;;;;;18.51;46.87;99301.42;447383;1270;142163;-67
2022/02/14 08:36:57;;;;;;;17.50;13.20;;;;;;;19.95;44.51;99290.25;438410;1270;144923;-63
2022/02/14 08:47:04;;;;;;;14.30;12.80;;;;;;;20.94;42.71;99280.60;442188;1269;141353;-65
2022/02/14 08:57:10;;;;;;;16.00;13.50;;;;;;;21.02;40.50;99266.70;435910;1270;141696;-66
2022/02/14 09:07:16;;;;;;;12.60;11.20;;;;;;;20.80;39.33;99265.20;445746;1269;141900;-64
2022/02/14 09:17:22;;;;;;;14.90;12.20;;;;;;;20.97;38.05;99262.41;434650;1270;141989;-66
2022/02/14 09:27:28;;;;;;;13.60;12.30;;;;;;;21.18;37.23;99262.73;434255;1270;142427;-68
2022/02/14 09:37:34;;;;;;;12.20;11.10;;;;;;;21.25;36.32;99253.59;438415;1270;141420;-67
2022/02/14 09:47:40;;;;;;;18.50;13.00;;;;;;;19.71;36.04;99249.23;431052;1270;141181;-67
2022/02/14 09:57:47;;;;;;;16.70;13.00;;;;;;;13.37;38.52;99247.27;439764;1269;142564;-69
2022/02/14 10:07:54;;;;;;;16.20;13.40;;;;;;;10.20;41.76;99254.31;434095;1270;140881;-69
2022/02/14 10:18:00;;;;;;;14.10;12.30;;;;;;;8.33;44.26;99248.00;437326;1269;142723;-65
2022/02/14 10:28:20;;;;;;;16.60;12.40;;;;;;;7.36;46.05;99243.70;436449;1270;146578;-62
2022/02/14 10:38:26;;;;;;;17.30;12.80;;;;;;;6.75;47.55;99238.28;437435;1270;142289;-72
2022/02/14 10:48:41;;;;;;;16.90;12.90;;;;;;;6.30;48.76;99227.59;441683;1269;141885;-63
2022/02/14 10:58:48;;;;;;;17.00;11.20;;;;;;;6.09;49.64;99207.83;439308;1270;141475;-63
2022/02/14 11:08:55;;;;;;;13.10;11.20;;;;;;;6.06;50.06;99201.58;437336;1270;141544;-64
2022/02/14 11:19:05;;;;;;;13.50;9.30;;;;;;;6.01;50.32;99190.66;447546;1269;144468;-61
2022/02/14 11:29:20;;;;;;;15.60;10.90;;;;;;;6.07;50.55;99183.27;446898;1269;142155;-59
2022/02/14 11:39:33;;;;;;;13.80;9.40;;;;;;;6.18;50.74;99178.86;439524;1269;141537;-58
2022/02/14 11:49:40;;;;;;;21.20;10.30;;;;;;;6.30;50.79;99171.45;434316;1270;139628;-59
2022/02/14 11:59:51;;;;;;;15.90;8.70;;;;;;;6.42;50.87;99155.52;447774;1269;141044;-63
2022/02/14 12:10:19;;;;;;;14.90;11.80;;;;;;;6.49;50.91;99136.20;435767;1270;140333;-64
2022/02/14 12:20:36;;;;;;;14.80;8.90;;;;;;;6.53;50.64;99122.55;445797;1269;141839;-61
2022/02/14 12:30:45;;;;;;;10.60;7.20;;;;;;;6.70;50.27;99110.03;432357;1269;141026;-60
2022/02/14 12:40:53;;;;;;;9.90;7.10;;;;;;;6.85;49.56;99101.70;433667;1270;141707;-62
2022/02/14 12:50:57;;;;;;;;;;;;;;;6.81;48.92;99092.20;439694;1269;141027;-58
2022/02/14 13:01:06;;;;;;;8.80;6.70;;;;;;;6.75;49.34;99077.05;443868;1269;127015;-59
2022/02/14 13:11:12;;;;;;;11.00;7.30;;;;;;;6.76;49.60;99068.29;438712;1269;139747;-62
2022/02/14 13:21:19;;;;;;;18.80;9.20;;;;;;;6.74;49.38;99052.21;433670;1269;140887;-62
2022/02/14 13:31:28;;;;;;;14.50;9.60;;;;;;;6.72;49.27;99044.31;440925;1269;141432;-60
2022/02/14 13:41:37;;;;;;;11.20;8.20;;;;;;;6.73;49.21;99044.93;432480;1269;140452;-63
2022/02/14 13:51:45;;;;;;;11.30;7.60;;;;;;;6.72;49.21;99042.20;446754;1269;140864;-61
2022/02/14 14:01:52;;;;;;;12.60;9.70;;;;;;;6.68;49.10;99035.88;437770;1269;141402;-66
2022/02/14 14:12:10;;;;;;;17.20;10.90;;;;;;;6.69;49.45;99035.10;440921;1269;141380;-63
2022/02/14 14:22:17;;;;;;;16.20;11.00;;;;;;;6.63;49.41;99036.64;445466;1269;140673;-65
2022/02/14 14:32:23;;;;;;;18.20;10.70;;;;;;;6.52;49.75;99022.15;438862;1270;260807;-61
2022/02/14 14:42:29;;;;;;;23.30;13.10;;;;;;;6.39;50.23;99015.73;443800;1269;198410;-63
2022/02/14 14:52:36;;;;;;;16.10;10.90;;;;;;;6.26;50.60;99009.16;430324;1270;140980;-63
2022/02/14 15:02:42;;;;;;;20.50;12.80;;;;;;;6.07;50.85;99004.94;441845;1269;140451;-62
2022/02/14 15:12:48;;;;;;;21.60;13.20;;;;;;;5.85;51.27;99000.40;437630;1269;141411;-60
2022/02/14 15:22:54;;;;;;;19.90;12.10;;;;;;;5.67;51.67;98999.94;445362;1270;140846;-63
2022/02/14 15:33:00;;;;;;;23.60;13.40;;;;;;;5.51;52.09;98992.27;446477;1270;141492;-62
2022/02/14 15:43:06;;;;;;;25.50;17.50;;;;;;;5.14;52.41;98999.19;447311;1270;141015;-66
2022/02/14 15:53:12;;;;;;;26.80;15.90;;;;;;;4.72;53.24;98999.19;438774;1269;143064;-66
2022/02/14 16:03:18;;;;;;;40.60;25.00;;;;;;;4.24;54.11;99003.53;436024;1269;141617;-68
2022/02/14 16:13:25;;;;;;;39.90;23.00;;;;;;;3.74;54.91;99004.27;431060;1270;140963;-67
2022/02/14 16:23:31;;;;;;;73.90;38.30;;;;;;;3.21;55.99;99010.23;430219;1270;143259;-65
2022/02/14 16:33:37;;;;;;;63.60;32.00;;;;;;;2.86;56.45;99016.03;433461;1270;141225;-67
2022/02/14 16:43:43;;;;;;;57.50;30.60;;;;;;;2.45;57.07;99018.50;434551;1270;139698;-70
2022/02/14 16:53:50;;;;;;;34.10;19.60;;;;;;;2.33;57.57;99017.24;440506;1269;141634;-68
2022/02/14 17:03:56;;;;;;;26.90;16.70;;;;;;;2.54;56.70;99014.52;432031;1270;141893;-69
2022/02/14 17:14:03;;;;;;;16.80;11.40;;;;;;;2.71;56.12;99011.27;434489;1268;141916;-68
2022/02/14 17:24:10;;;;;;;16.30;11.80;;;;;;;2.80;55.69;99014.52;429938;1270;141438;-67
2022/02/14 17:34:16;;;;;;;20.80;13.20;;;;;;;2.73;55.50;99014.98;438367;1270;141134;-67
2022/02/14 17:44:22;;;;;;;35.90;22.40;;;;;;;2.64;55.79;99020.52;431214;1270;143246;-67
2022/02/14 17:54:27;;;;;;;26.70;18.40;;;;;;;2.49;55.92;99022.50;430746;1270;141719;-68
2022/02/14 18:04:33;;;;;;;35.70;21.70;;;;;;;2.33;56.30;99021.39;438192;1270;141159;-66
2022/02/14 18:14:41;;;;;;;43.90;24.40;;;;;;;2.17;56.68;99021.50;446649;1269;142080;-66
2022/02/14 18:24:48;;;;;;;53.50;28.50;;;;;;;1.99;56.97;99019.08;442047;1270;141902;-67
2022/02/14 18:34:54;;;;;;;45.40;28.10;;;;;;;1.79;57.62;99013.08;431007;1270;140827;-67
2022/02/14 18:44:59;;;;;;;41.50;25.90;;;;;;;1.60;58.55;99010.30;432384;1269;141660;-67
2022/02/14 18:55:07;;;;;;;33.90;23.20;;;;;;;1.44;59.62;99007.09;433779;1269;141331;-67
2022/02/14 19:05:13;;;;;;;38.80;23.90;;;;;;;1.30;60.33;99006.05;440594;1269;140636;-67
2022/02/14 19:15:19;;;;;;;42.60;24.20;;;;;;;1.22;60.77;99010.96;432578;1270;141169;-67
2022/02/14 19:25:24;;;;;;;40.50;23.80;;;;;;;1.11;61.13;99017.21;434488;1270;141053;-68
2022/02/14 19:35:31;;;;;;;42.60;24.80;;;;;;;1.01;61.43;99018.06;433863;1268;141619;-66
2022/02/14 19:45:37;;;;;;;43.10;25.20;;;;;;;0.92;61.72;99023.54;433151;1270;142252;-68
2022/02/14 19:55:44;;;;;;;36.20;23.80;;;;;;;0.82;61.87;99021.47;437891;1270;141022;-68
2022/02/14 20:05:50;;;;;;;32.60;19.40;;;;;;;0.69;61.78;99022.55;440556;1269;141521;-59
2022/02/14 20:15:56;;;;;;;43.40;25.30;;;;;;;0.56;62.17;99016.42;433392;1270;141198;-60
2022/02/14 20:26:04;;;;;;;28.20;17.20;;;;;;;0.49;61.92;99006.66;430585;1270;141775;-60
2022/02/14 20:36:09;;;;;;;29.20;17.50;;;;;;;0.51;62.05;99007.30;435961;1269;143910;-60
2022/02/14 20:46:15;;;;;;;24.80;15.60;;;;;;;0.53;62.39;99012.05;435914;1270;142769;-60
2022/02/14 20:56:21;;;;;;;34.40;17.30;;;;;;;0.65;62.56;98993.73;433557;1270;141141;-61
2022/02/14 21:06:27;;;;;;;20.50;14.40;;;;;;;0.84;62.93;98994.33;434316;1269;141782;-60
2022/02/14 21:16:33;;;;;;;21.00;13.40;;;;;;;0.95;62.81;98990.87;434222;1270;140513;-61
2022/02/14 21:26:40;;;;;;;27.10;15.50;;;;;;;0.95;63.13;98989.48;437994;1270;141734;-61
2022/02/14 21:36:46;;;;;;;26.30;15.50;;;;;;;0.88;63.21;98985.23;431839;1270;141552;-61
2022/02/14 21:46:52;;;;;;;31.50;19.90;;;;;;;0.78;63.59;98981.75;438034;1270;142484;-60
2022/02/14 21:56:58;;;;;;;21.90;15.20;;;;;;;0.67;64.10;98965.27;442798;1270;151543;-59
2022/02/14 22:07:23;;;;;;;24.70;15.90;;;;;;;0.66;64.36;98958.41;438718;1270;141390;-60
2022/02/14 22:17:29;;;;;;;27.90;17.00;;;;;;;0.64;64.73;98956.90;436238;1270;142247;-60
2022/02/14 22:27:35;;;;;;;25.30;15.50;;;;;;;0.63;64.99;98964.16;442323;1270;142242;-61
2022/02/14 22:37:42;;;;;;;24.40;16.00;;;;;;;0.60;65.19;98963.07;436105;1269;141118;-61
2022/02/14 22:47:48;;;;;;;22.40;14.90;;;;;;;0.51;65.40;98968.35;432312;1270;142050;-62
2022/02/14 22:57:53;;;;;;;24.80;17.10;;;;;;;0.39;65.89;98969.79;436280;1270;142121;-61
2022/02/14 23:18:23;;;;;;;32.00;20.70;;;;;;;0.16;66.34;98966.52;435525;1269;142458;-60
2022/02/14 23:28:29;;;;;;;32.00;19.90;;;;;;;0.05;66.66;98963.42;430890;1270;141995;-60
2022/02/14 23:38:36;;;;;;;37.60;21.40;;;;;;;-0.08;66.84;98961.05;433927;1270;141578;-60
2022/02/14 23:48:42;;;;;;;30.80;19.20;;;;;;;-0.17;67.61;98951.88;437980;1270;141985;-61
2022/02/14 23:58:48;;;;;;;36.50;22.10;;;;;;;-0.23;67.57;98941.75;432152;1270;141507;-61
